createdAt,value
2022-07-29T00:00:31.795Z,51.66
2022-07-29T00:01:31.821Z,51.66
2022-07-29T00:02:31.855Z,51.66
2022-07-29T00:03:31.866Z,51.46
2022-07-29T00:04:31.877Z,51.36
2022-07-29T00:05:31.742Z,51.46
2022-07-29T00:06:31.729Z,51.36
2022-07-29T00:07:31.722Z,51.36
2022-07-29T00:08:31.713Z,51.26
2022-07-29T00:09:31.687Z,50.93
2022-07-29T00:10:31.693Z,51.04
2022-07-29T00:11:31.670Z,51.14
2022-07-29T00:12:31.664Z,51.34
2022-07-29T00:13:32.448Z,51.14
2022-07-29T00:14:31.621Z,51.44
2022-07-29T00:15:31.625Z,51.34
2022-07-29T00:16:31.628Z,51.44
2022-07-29T00:17:31.601Z,51.34
2022-07-29T00:18:31.596Z,51.34
2022-07-29T00:19:31.591Z,51.34
2022-07-29T00:20:31.558Z,51.54
2022-07-29T00:21:31.582Z,51.54
2022-07-29T00:22:31.573Z,51.54
2022-07-29T00:23:33.788Z,51.04
2022-07-29T00:24:32.663Z,50.93
2022-07-29T00:25:31.523Z,51.24
2022-07-29T00:26:31.504Z,51.04
2022-07-29T00:27:31.484Z,50.84
2022-07-29T00:28:31.474Z,50.73
2022-07-29T00:29:33.949Z,50.73
2022-07-29T00:30:31.462Z,51.14
2022-07-29T00:31:33.095Z,50.93
2022-07-29T00:32:31.436Z,50.93
2022-07-29T00:33:31.427Z,50.23
2022-07-29T00:34:31.420Z,50.13
2022-07-29T00:35:31.394Z,50.63
2022-07-29T00:36:31.378Z,50.53
2022-07-29T00:37:31.376Z,50.53
2022-07-29T00:38:31.360Z,50.33
2022-07-29T00:39:31.358Z,50.43
2022-07-29T00:40:31.331Z,50.13
2022-07-29T00:41:31.333Z,50.13
2022-07-29T00:42:31.330Z,50.03
2022-07-29T00:43:31.306Z,50.23
2022-07-29T00:44:31.282Z,50.23
2022-07-29T00:45:31.280Z,50.33
2022-07-29T00:46:31.335Z,50.53
2022-07-29T00:47:31.283Z,50.43
2022-07-29T00:48:31.247Z,50.43
2022-07-29T00:49:31.237Z,50.63
2022-07-29T00:50:31.226Z,50.63
2022-07-29T00:51:31.224Z,50.63
2022-07-29T00:52:31.228Z,51.44
2022-07-29T00:53:31.194Z,51.64
2022-07-29T00:54:31.184Z,51.64
2022-07-29T00:55:31.185Z,51.97
2022-07-29T00:56:31.151Z,51.86
2022-07-29T00:57:31.165Z,51.97
2022-07-29T00:58:31.146Z,52.17
2022-07-29T00:59:34.741Z,52.57
2022-07-29T01:00:31.182Z,51.46
2022-07-29T01:01:31.112Z,51.46
2022-07-29T01:02:31.137Z,51.56
2022-07-29T01:03:31.080Z,51.56
2022-07-29T01:04:31.069Z,51.66
2022-07-29T01:05:50.711Z,51.86
2022-07-29T01:06:32.050Z,51.56
2022-07-29T01:07:31.053Z,51.46
2022-07-29T01:08:31.021Z,51.56
2022-07-29T01:09:46.415Z,51.66
2022-07-29T01:10:31.991Z,51.56
2022-07-29T01:11:31.003Z,51.76
2022-07-29T01:12:30.979Z,52.17
2022-07-29T01:13:30.984Z,52.19
2022-07-29T01:14:30.958Z,52.49
2022-07-29T01:15:31.020Z,52.49
2022-07-29T01:16:31.004Z,52.80
2022-07-29T01:17:30.933Z,52.69
2022-07-29T01:18:30.916Z,53.12
2022-07-29T01:19:30.909Z,53.22
2022-07-29T01:20:31.694Z,53.22
2022-07-29T01:21:30.875Z,53.22
2022-07-29T01:22:31.847Z,53.22
2022-07-29T01:23:30.869Z,52.92
2022-07-29T01:24:30.858Z,52.82
2022-07-29T01:25:30.840Z,53.02
2022-07-29T01:26:30.832Z,52.92
2022-07-29T01:27:30.829Z,53.02
2022-07-29T01:28:30.807Z,53.22
2022-07-29T01:29:36.102Z,53.12
2022-07-29T01:30:31.776Z,52.82
2022-07-29T01:31:30.848Z,52.92
2022-07-29T01:32:30.845Z,52.89
2022-07-29T01:33:31.760Z,53.00
2022-07-29T01:34:30.740Z,52.89
2022-07-29T01:35:30.715Z,52.80
2022-07-29T01:36:30.722Z,53.09
2022-07-29T01:37:30.690Z,52.09
2022-07-29T01:38:30.679Z,52.62
2022-07-29T01:39:30.707Z,52.82
2022-07-29T01:40:30.653Z,52.82
2022-07-29T01:41:30.675Z,52.92
2022-07-29T01:42:30.648Z,53.22
2022-07-29T01:43:31.661Z,53.02
2022-07-29T01:44:30.623Z,53.22
2022-07-29T01:45:30.614Z,53.32
2022-07-29T01:46:30.655Z,53.52
2022-07-29T01:47:30.595Z,53.22
2022-07-29T01:48:30.608Z,53.22
2022-07-29T01:49:30.655Z,53.12
2022-07-29T01:50:30.557Z,53.12
2022-07-29T01:51:31.484Z,52.92
2022-07-29T01:52:30.518Z,52.92
2022-07-29T01:53:37.680Z,53.12
2022-07-29T01:54:31.502Z,53.63
2022-07-29T01:55:30.595Z,53.02
2022-07-29T01:56:30.474Z,53.12
2022-07-29T01:57:30.472Z,53.22
2022-07-29T01:58:30.494Z,53.22
2022-07-29T01:59:30.473Z,53.52
2022-07-29T02:00:30.445Z,53.83
2022-07-29T02:01:30.534Z,53.12
2022-07-29T02:02:30.420Z,53.25
2022-07-29T02:03:31.359Z,53.05
2022-07-29T02:04:30.526Z,53.22
2022-07-29T02:05:30.606Z,53.22
2022-07-29T02:06:30.367Z,53.32
2022-07-29T02:07:30.361Z,53.52
2022-07-29T02:08:30.368Z,53.63
2022-07-29T02:09:30.342Z,53.75
2022-07-29T02:10:30.334Z,53.65
2022-07-29T02:11:30.309Z,53.65
2022-07-29T02:12:30.313Z,53.52
2022-07-29T02:13:30.304Z,53.45
2022-07-29T02:14:30.265Z,53.55
2022-07-29T02:15:30.335Z,53.65
2022-07-29T02:16:30.318Z,53.85
2022-07-29T02:17:30.272Z,53.95
2022-07-29T02:18:30.227Z,54.05
2022-07-29T02:19:30.236Z,54.05
2022-07-29T02:20:30.197Z,54.05
2022-07-29T02:21:32.167Z,54.15
2022-07-29T02:22:30.188Z,54.25
2022-07-29T02:23:30.198Z,54.15
2022-07-29T02:24:30.172Z,54.35
2022-07-29T02:25:37.196Z,54.35
2022-07-29T02:26:31.139Z,54.25
2022-07-29T02:27:30.130Z,54.25
2022-07-29T02:28:30.113Z,54.25
2022-07-29T02:29:30.144Z,54.15
2022-07-29T02:30:30.103Z,54.46
2022-07-29T02:31:30.159Z,54.66
2022-07-29T02:32:30.082Z,54.66
2022-07-29T02:33:30.063Z,54.55
2022-07-29T02:34:30.043Z,54.46
2022-07-29T02:35:34.987Z,54.55
2022-07-29T02:36:31.023Z,54.75
2022-07-29T02:37:30.020Z,54.75
2022-07-29T02:38:30.026Z,54.66
2022-07-29T02:39:30.004Z,54.55
2022-07-29T02:40:29.987Z,54.55
2022-07-29T02:41:30.591Z,54.55
2022-07-29T02:42:29.986Z,54.66
2022-07-29T02:43:29.952Z,54.96
2022-07-29T02:44:34.392Z,54.96
2022-07-29T02:45:29.939Z,54.99
2022-07-29T02:46:29.969Z,54.88
2022-07-29T02:47:29.908Z,54.79
2022-07-29T02:48:29.915Z,54.99
2022-07-29T02:49:29.880Z,54.99
2022-07-29T02:50:29.877Z,55.08
2022-07-29T02:51:43.737Z,55.19
2022-07-29T02:52:30.840Z,55.29
2022-07-29T02:53:29.829Z,55.39
2022-07-29T02:54:29.874Z,55.39
2022-07-29T02:55:29.826Z,55.29
2022-07-29T02:56:29.811Z,55.39
2022-07-29T02:57:29.794Z,55.59
2022-07-29T02:58:29.785Z,55.59
2022-07-29T02:59:29.791Z,55.99
2022-07-29T03:00:29.767Z,55.99
2022-07-29T03:01:29.781Z,55.91
2022-07-29T03:02:29.728Z,55.71
2022-07-29T03:03:29.721Z,55.91
2022-07-29T03:04:29.769Z,56.12
2022-07-29T03:05:29.713Z,55.71
2022-07-29T03:06:37.823Z,56.32
2022-07-29T03:07:30.761Z,56.52
2022-07-29T03:08:29.705Z,56.62
2022-07-29T03:09:29.657Z,56.62
2022-07-29T03:10:29.635Z,56.42
2022-07-29T03:11:46.077Z,56.52
2022-07-29T03:12:30.750Z,56.62
2022-07-29T03:13:29.636Z,56.52
2022-07-29T03:14:29.598Z,56.42
2022-07-29T03:15:29.596Z,56.82
2022-07-29T03:16:29.644Z,56.42
2022-07-29T03:17:29.557Z,56.42
2022-07-29T03:18:29.557Z,56.32
2022-07-29T03:19:29.547Z,56.22
2022-07-29T03:20:29.527Z,56.72
2022-07-29T03:21:29.511Z,56.62
2022-07-29T03:22:29.515Z,56.92
2022-07-29T03:23:35.219Z,56.92
2022-07-29T03:24:30.479Z,56.72
2022-07-29T03:25:29.485Z,56.62
2022-07-29T03:26:29.468Z,56.62
2022-07-29T03:27:29.465Z,56.82
2022-07-29T03:28:29.444Z,56.82
2022-07-29T03:29:33.926Z,56.85
2022-07-29T03:30:29.458Z,57.05
2022-07-29T03:31:29.483Z,57.25
2022-07-29T03:32:29.415Z,57.45
2022-07-29T03:33:29.435Z,57.65
2022-07-29T03:34:29.383Z,57.76
2022-07-29T03:35:29.371Z,57.76
2022-07-29T03:36:29.350Z,58.06
2022-07-29T03:37:29.344Z,58.16
2022-07-29T03:38:29.348Z,58.26
2022-07-29T03:39:29.317Z,58.39
2022-07-29T03:40:29.305Z,58.26
2022-07-29T03:41:29.281Z,58.36
2022-07-29T03:42:34.090Z,58.47
2022-07-29T03:43:30.381Z,58.67
2022-07-29T03:44:29.253Z,58.56
2022-07-29T03:45:29.247Z,58.67
2022-07-29T03:46:29.278Z,58.47
2022-07-29T03:47:49.749Z,58.26
2022-07-29T03:48:30.317Z,58.56
2022-07-29T03:49:29.307Z,58.67
2022-07-29T03:50:29.188Z,58.67
2022-07-29T03:51:33.379Z,58.76
2022-07-29T03:52:30.151Z,59.07
2022-07-29T03:53:29.169Z,58.76
2022-07-29T03:54:29.132Z,58.87
2022-07-29T03:55:29.151Z,59.07
2022-07-29T03:56:29.121Z,59.07
2022-07-29T03:57:29.103Z,59.07
2022-07-29T03:58:29.102Z,59.17
2022-07-29T03:59:29.073Z,59.07
2022-07-29T04:00:29.057Z,58.97
2022-07-29T04:01:29.090Z,58.76
2022-07-29T04:02:30.828Z,59.07
2022-07-29T04:03:29.124Z,59.17
2022-07-29T04:04:29.025Z,59.07
2022-07-29T04:05:29.019Z,59.09
2022-07-29T04:06:29.020Z,59.30
2022-07-29T04:07:28.987Z,59.20
2022-07-29T04:08:28.987Z,59.07
2022-07-29T04:09:28.976Z,59.17
2022-07-29T04:10:31.801Z,59.07
2022-07-29T04:11:28.935Z,59.27
2022-07-29T04:12:28.927Z,59.57
2022-07-29T04:13:28.929Z,59.17
2022-07-29T04:14:28.931Z,59.37
2022-07-29T04:15:31.067Z,59.07
2022-07-29T04:16:28.918Z,58.76
2022-07-29T04:17:28.862Z,58.36
2022-07-29T04:18:28.887Z,58.47
2022-07-29T04:19:28.874Z,58.56
2022-07-29T04:20:28.841Z,58.47
2022-07-29T04:21:28.827Z,58.56
2022-07-29T04:22:28.853Z,58.47
2022-07-29T04:23:28.806Z,58.76
2022-07-29T04:24:29.008Z,58.67
2022-07-29T04:25:28.788Z,58.76
2022-07-29T04:26:28.795Z,58.56
2022-07-29T04:27:28.754Z,58.76
2022-07-29T04:28:28.749Z,58.47
2022-07-29T04:29:28.734Z,58.14
2022-07-29T04:30:28.774Z,58.14
2022-07-29T04:31:28.760Z,58.54
2022-07-29T04:32:28.699Z,59.34
2022-07-29T04:33:28.728Z,59.24
2022-07-29T04:34:28.716Z,59.34
2022-07-29T04:35:28.686Z,59.14
2022-07-29T04:36:30.104Z,58.64
2022-07-29T04:37:28.650Z,58.47
2022-07-29T04:38:28.666Z,58.47
2022-07-29T04:39:28.942Z,59.27
2022-07-29T04:40:28.634Z,60.00
2022-07-29T04:41:32.677Z,60.64
2022-07-29T04:42:29.405Z,61.65
2022-07-29T04:43:28.591Z,61.95
2022-07-29T04:44:29.572Z,62.05
2022-07-29T04:45:28.581Z,62.48
2022-07-29T04:46:28.644Z,62.79
2022-07-29T04:47:28.523Z,62.68
2022-07-29T04:48:29.036Z,62.59
2022-07-29T04:49:28.588Z,62.38
2022-07-29T04:50:28.525Z,62.18
2022-07-29T04:51:28.501Z,62.18
2022-07-29T04:52:28.485Z,61.98
2022-07-29T04:53:28.549Z,61.95
2022-07-29T04:54:28.464Z,61.65
2022-07-29T04:55:28.455Z,61.35
2022-07-29T04:56:28.438Z,61.24
2022-07-29T04:57:28.421Z,61.04
2022-07-29T04:58:28.420Z,61.14
2022-07-29T04:59:28.445Z,61.44
2022-07-29T05:00:32.129Z,61.44
2022-07-29T05:01:29.399Z,61.65
2022-07-29T05:02:28.400Z,61.04
2022-07-29T05:03:28.360Z,60.94
2022-07-29T05:04:28.340Z,60.94
2022-07-29T05:05:28.333Z,60.74
2022-07-29T05:06:28.346Z,60.64
2022-07-29T05:07:28.356Z,60.24
2022-07-29T05:08:28.370Z,60.00
2022-07-29T05:09:28.279Z,59.80
2022-07-29T05:10:28.292Z,59.80
2022-07-29T05:11:30.567Z,59.80
2022-07-29T05:12:28.252Z,59.80
2022-07-29T05:13:28.230Z,59.60
2022-07-29T05:14:29.245Z,59.50
2022-07-29T05:15:28.309Z,59.40
2022-07-29T05:16:28.280Z,59.37
2022-07-29T05:17:28.183Z,59.27
2022-07-29T05:18:28.165Z,59.07
2022-07-29T05:19:28.153Z,58.97
2022-07-29T05:20:28.192Z,58.97
2022-07-29T05:21:28.176Z,59.37
2022-07-29T05:22:28.140Z,59.14
2022-07-29T05:23:28.138Z,59.14
2022-07-29T05:24:28.101Z,59.14
2022-07-29T05:25:43.224Z,59.04
2022-07-29T05:26:29.127Z,59.22
2022-07-29T05:27:28.071Z,58.71
2022-07-29T05:28:28.069Z,58.51
2022-07-29T05:29:42.863Z,58.61
2022-07-29T05:30:29.063Z,58.74
2022-07-29T05:31:28.104Z,59.14
2022-07-29T05:32:28.084Z,59.55
2022-07-29T05:33:35.835Z,59.75
2022-07-29T05:34:29.008Z,59.55
2022-07-29T05:35:27.980Z,59.24
2022-07-29T05:36:27.990Z,59.55
2022-07-29T05:37:27.954Z,59.44
2022-07-29T05:38:27.950Z,59.24
2022-07-29T05:39:47.380Z,58.91
2022-07-29T05:40:29.891Z,58.41
2022-07-29T05:41:27.956Z,58.41
2022-07-29T05:42:27.914Z,58.21
2022-07-29T05:43:27.895Z,58.31
2022-07-29T05:44:27.893Z,58.01
2022-07-29T05:45:27.889Z,58.11
2022-07-29T05:46:27.943Z,58.18
2022-07-29T05:47:27.835Z,58.07
2022-07-29T05:48:27.873Z,58.07
2022-07-29T05:49:27.872Z,57.95
2022-07-29T05:50:27.829Z,57.85
2022-07-29T05:51:27.797Z,57.85
2022-07-29T05:52:27.826Z,57.52
2022-07-29T05:53:27.776Z,57.32
2022-07-29T05:54:27.809Z,57.32
2022-07-29T05:55:27.772Z,56.92
2022-07-29T05:56:27.745Z,57.02
2022-07-29T05:57:27.739Z,56.62
2022-07-29T05:58:27.723Z,56.01
2022-07-29T05:59:30.465Z,56.21
2022-07-29T06:00:27.720Z,55.91
2022-07-29T06:01:27.729Z,55.81
2022-07-29T06:02:27.698Z,56.62
2022-07-29T06:03:27.661Z,56.21
2022-07-29T06:04:27.719Z,56.92
2022-07-29T06:05:27.651Z,56.92
2022-07-29T06:06:27.631Z,56.71
2022-07-29T06:07:27.626Z,56.11
2022-07-29T06:08:28.581Z,56.44
2022-07-29T06:09:29.236Z,56.64
2022-07-29T06:10:27.612Z,56.74
2022-07-29T06:11:27.574Z,57.04
2022-07-29T06:12:27.562Z,57.15
2022-07-29T06:13:27.577Z,57.35
2022-07-29T06:14:27.560Z,57.35
2022-07-29T06:15:27.545Z,57.35
2022-07-29T06:16:30.048Z,57.35
2022-07-29T06:17:27.513Z,57.15
2022-07-29T06:18:27.508Z,57.04
2022-07-29T06:19:27.485Z,57.15
2022-07-29T06:20:27.519Z,57.35
2022-07-29T06:21:27.473Z,57.75
2022-07-29T06:22:27.459Z,57.95
2022-07-29T06:23:27.438Z,58.05
2022-07-29T06:24:27.447Z,57.75
2022-07-29T06:25:27.419Z,57.68
2022-07-29T06:26:30.253Z,57.78
2022-07-29T06:27:27.415Z,57.98
2022-07-29T06:28:27.386Z,57.85
2022-07-29T06:29:27.371Z,57.57
2022-07-29T06:30:27.572Z,57.65
2022-07-29T06:31:27.465Z,57.65
2022-07-29T06:32:27.551Z,57.75
2022-07-29T06:33:27.318Z,57.85
2022-07-29T06:34:27.326Z,57.95
2022-07-29T06:35:41.100Z,57.55
2022-07-29T06:36:28.287Z,57.15
2022-07-29T06:37:27.275Z,57.35
2022-07-29T06:38:30.682Z,56.84
2022-07-29T06:39:27.255Z,56.64
2022-07-29T06:40:27.294Z,57.24
2022-07-29T06:41:27.245Z,57.35
2022-07-29T06:42:28.170Z,57.24
2022-07-29T06:43:27.206Z,57.62
2022-07-29T06:44:27.196Z,57.42
2022-07-29T06:45:27.191Z,57.42
2022-07-29T06:46:27.222Z,56.71
2022-07-29T06:47:27.203Z,56.62
2022-07-29T06:48:27.175Z,56.62
2022-07-29T06:49:27.209Z,56.62
2022-07-29T06:50:27.131Z,56.69
2022-07-29T06:51:27.120Z,56.79
2022-07-29T06:52:27.121Z,55.99
2022-07-29T06:53:28.060Z,55.88
2022-07-29T06:54:27.081Z,55.88
2022-07-29T06:55:27.071Z,55.68
2022-07-29T06:56:27.065Z,55.58
2022-07-29T06:57:27.062Z,55.35
2022-07-29T06:58:27.042Z,55.66
2022-07-29T06:59:35.103Z,55.86
2022-07-29T07:00:28.064Z,55.96
2022-07-29T07:01:27.086Z,55.86
2022-07-29T07:02:27.093Z,56.06
2022-07-29T07:03:26.986Z,56.34
2022-07-29T07:04:26.968Z,56.54
2022-07-29T07:05:26.956Z,55.83
2022-07-29T07:06:26.958Z,55.83
2022-07-29T07:07:26.958Z,55.43
2022-07-29T07:08:26.923Z,54.72
2022-07-29T07:09:26.936Z,54.83
2022-07-29T07:10:27.915Z,55.00
2022-07-29T07:11:26.899Z,55.91
2022-07-29T07:12:26.913Z,55.20
2022-07-29T07:13:26.922Z,54.70
2022-07-29T07:14:26.869Z,54.70
2022-07-29T07:15:39.900Z,55.30
2022-07-29T07:16:27.908Z,54.17
2022-07-29T07:17:26.819Z,53.77
2022-07-29T07:18:26.811Z,54.27
2022-07-29T07:19:26.801Z,54.17
2022-07-29T07:20:26.789Z,54.17
2022-07-29T07:21:26.786Z,53.27
2022-07-29T07:22:26.771Z,54.47
2022-07-29T07:23:26.789Z,53.47
2022-07-29T07:24:26.748Z,53.27
2022-07-29T07:25:26.748Z,53.17
2022-07-29T07:26:26.716Z,53.67
2022-07-29T07:27:26.740Z,54.07
2022-07-29T07:28:26.707Z,54.88
2022-07-29T07:29:26.709Z,54.38
2022-07-29T07:30:26.698Z,54.07
2022-07-29T07:31:26.703Z,54.77
2022-07-29T07:32:26.821Z,54.47
2022-07-29T07:33:27.611Z,54.47
2022-07-29T07:34:28.407Z,55.40
2022-07-29T07:35:26.617Z,54.90
2022-07-29T07:36:26.616Z,54.40
2022-07-29T07:37:26.594Z,54.60
2022-07-29T07:38:26.577Z,55.00
2022-07-29T07:39:26.574Z,55.20
2022-07-29T07:40:26.565Z,55.71
2022-07-29T07:41:26.559Z,55.00
2022-07-29T07:42:27.537Z,55.40
2022-07-29T07:43:26.523Z,55.60
2022-07-29T07:44:26.537Z,55.53
2022-07-29T07:45:26.582Z,55.63
2022-07-29T07:46:26.610Z,55.93
2022-07-29T07:47:27.892Z,56.03
2022-07-29T07:48:26.471Z,56.23
2022-07-29T07:49:26.568Z,56.34
2022-07-29T07:50:27.418Z,56.23
2022-07-29T07:51:27.387Z,56.54
2022-07-29T07:52:26.428Z,56.43
2022-07-29T07:53:26.423Z,56.84
2022-07-29T07:54:26.399Z,56.54
2022-07-29T07:55:26.401Z,56.74
2022-07-29T07:56:26.381Z,56.54
2022-07-29T07:57:26.352Z,56.84
2022-07-29T07:58:27.324Z,56.93
2022-07-29T07:59:26.339Z,57.34
2022-07-29T08:00:26.335Z,57.04
2022-07-29T08:01:26.388Z,57.94
2022-07-29T08:02:26.370Z,57.84
2022-07-29T08:03:27.302Z,57.94
2022-07-29T08:04:28.467Z,57.94
2022-07-29T08:05:26.273Z,57.94
2022-07-29T08:06:26.277Z,58.24
2022-07-29T08:07:26.248Z,59.05
2022-07-29T08:08:26.257Z,59.05
2022-07-29T08:09:29.830Z,59.55
2022-07-29T08:10:27.167Z,59.45
2022-07-29T08:11:26.216Z,59.14
2022-07-29T08:12:26.197Z,59.14
2022-07-29T08:13:26.197Z,59.85
2022-07-29T08:14:26.168Z,59.05
2022-07-29T08:15:27.138Z,58.84
2022-07-29T08:16:26.238Z,58.44
2022-07-29T08:17:26.153Z,58.44
2022-07-29T08:18:26.136Z,58.24
2022-07-29T08:19:26.117Z,58.31
2022-07-29T08:20:27.061Z,58.11
2022-07-29T08:21:26.088Z,58.22
2022-07-29T08:22:26.108Z,57.81
2022-07-29T08:23:26.067Z,58.01
2022-07-29T08:24:26.060Z,58.42
2022-07-29T08:25:26.045Z,58.51
2022-07-29T08:26:26.054Z,58.42
2022-07-29T08:27:43.836Z,58.42
2022-07-29T08:28:27.031Z,58.51
2022-07-29T08:29:26.025Z,58.62
2022-07-29T08:30:25.986Z,58.72
2022-07-29T08:31:26.116Z,58.94
2022-07-29T08:32:50.979Z,59.05
2022-07-29T08:33:26.949Z,59.14
2022-07-29T08:34:28.000Z,59.78
2022-07-29T08:35:26.906Z,60.18
2022-07-29T08:36:25.938Z,60.78
2022-07-29T08:37:25.922Z,60.78
2022-07-29T08:38:25.900Z,61.08
2022-07-29T08:39:25.912Z,61.79
2022-07-29T08:40:31.988Z,61.25
2022-07-29T08:41:26.893Z,61.55
2022-07-29T08:42:25.866Z,61.25
2022-07-29T08:43:25.844Z,61.46
2022-07-29T08:44:30.794Z,61.58
2022-07-29T08:45:26.849Z,61.79
2022-07-29T08:46:25.815Z,61.88
2022-07-29T08:47:25.801Z,61.99
2022-07-29T08:48:25.876Z,62.29
2022-07-29T08:49:25.891Z,61.58
2022-07-29T08:50:25.765Z,62.19
2022-07-29T08:51:25.749Z,62.08
2022-07-29T08:52:25.768Z,62.39
2022-07-29T08:53:25.732Z,62.39
2022-07-29T08:54:25.711Z,61.99
2022-07-29T08:55:25.699Z,62.29
2022-07-29T08:56:25.716Z,62.29
2022-07-29T08:57:25.697Z,62.39
2022-07-29T08:58:25.934Z,62.19
2022-07-29T08:59:25.687Z,62.49
2022-07-29T09:00:25.652Z,61.58
2022-07-29T09:01:36.077Z,62.12
2022-07-29T09:02:26.632Z,61.91
2022-07-29T09:03:25.711Z,62.92
2022-07-29T09:04:25.612Z,62.72
2022-07-29T09:05:25.591Z,62.55
2022-07-29T09:06:25.577Z,61.54
2022-07-29T09:07:25.577Z,62.02
2022-07-29T09:08:26.565Z,61.11
2022-07-29T09:09:25.554Z,61.41
2022-07-29T09:10:25.543Z,61.31
2022-07-29T09:11:25.526Z,60.68
2022-07-29T09:12:28.882Z,59.78
2022-07-29T09:13:25.520Z,59.78
2022-07-29T09:14:25.487Z,59.38
2022-07-29T09:15:26.444Z,59.45
2022-07-29T09:16:50.822Z,58.94
2022-07-29T09:17:26.560Z,58.54
2022-07-29T09:18:30.535Z,58.31
2022-07-29T09:19:26.453Z,58.51
2022-07-29T09:20:25.426Z,57.81
2022-07-29T09:21:25.444Z,57.11
2022-07-29T09:22:25.399Z,56.98
2022-07-29T09:23:25.403Z,56.78
2022-07-29T09:24:25.393Z,56.78
2022-07-29T09:25:25.395Z,56.65
2022-07-29T09:26:25.349Z,56.65
2022-07-29T09:27:25.349Z,57.26
2022-07-29T09:28:25.338Z,57.23
2022-07-29T09:29:25.343Z,56.43
2022-07-29T09:30:28.305Z,56.13
2022-07-29T09:31:26.408Z,55.73
2022-07-29T09:32:25.303Z,56.33
2022-07-29T09:33:25.267Z,56.43
2022-07-29T09:34:25.268Z,56.43
2022-07-29T09:35:25.260Z,56.13
2022-07-29T09:36:25.242Z,56.13
2022-07-29T09:37:25.225Z,56.33
2022-07-29T09:38:25.206Z,56.26
2022-07-29T09:39:25.209Z,56.52
2022-07-29T09:40:25.215Z,55.82
2022-07-29T09:41:25.187Z,56.26
2022-07-29T09:42:25.187Z,56.56
2022-07-29T09:43:25.153Z,56.63
2022-07-29T09:44:25.178Z,56.73
2022-07-29T09:45:25.142Z,57.33
2022-07-29T09:46:25.157Z,57.03
2022-07-29T09:47:25.138Z,57.13
2022-07-29T09:48:26.056Z,56.93
2022-07-29T09:49:25.151Z,56.80
2022-07-29T09:50:25.084Z,56.50
2022-07-29T09:51:38.352Z,56.40
2022-07-29T09:52:26.061Z,56.30
2022-07-29T09:53:25.058Z,56.30
2022-07-29T09:54:25.033Z,56.40
2022-07-29T09:55:25.018Z,56.10
2022-07-29T09:56:25.026Z,56.40
2022-07-29T09:57:28.637Z,55.50
2022-07-29T09:58:26.008Z,54.70
2022-07-29T09:59:24.983Z,55.60
2022-07-29T10:00:24.983Z,55.50
2022-07-29T10:01:25.099Z,56.00
2022-07-29T10:02:24.934Z,55.57
2022-07-29T10:03:25.064Z,55.27
2022-07-29T10:04:24.931Z,55.17
2022-07-29T10:05:24.911Z,54.97
2022-07-29T10:06:24.898Z,54.67
2022-07-29T10:07:24.888Z,54.57
2022-07-29T10:08:24.902Z,54.67
2022-07-29T10:09:24.881Z,54.87
2022-07-29T10:10:24.864Z,54.87
2022-07-29T10:11:24.864Z,54.77
2022-07-29T10:12:25.829Z,55.07
2022-07-29T10:13:24.828Z,54.97
2022-07-29T10:14:25.596Z,54.47
2022-07-29T10:15:24.827Z,54.57
2022-07-29T10:16:24.861Z,54.47
2022-07-29T10:17:24.781Z,54.67
2022-07-29T10:18:24.765Z,54.97
2022-07-29T10:19:24.762Z,54.87
2022-07-29T10:20:24.732Z,54.37
2022-07-29T10:21:35.344Z,54.47
2022-07-29T10:22:50.658Z,54.35
2022-07-29T10:23:25.714Z,54.14
2022-07-29T10:24:24.684Z,53.85
2022-07-29T10:25:24.676Z,53.24
2022-07-29T10:26:24.675Z,53.55
2022-07-29T10:27:24.662Z,53.64
2022-07-29T10:28:24.643Z,53.42
2022-07-29T10:29:24.640Z,53.42
2022-07-29T10:30:24.636Z,54.02
2022-07-29T10:31:24.717Z,53.72
2022-07-29T10:32:24.604Z,53.22
2022-07-29T10:33:24.600Z,53.39
2022-07-29T10:34:24.621Z,53.09
2022-07-29T10:35:24.601Z,52.89
2022-07-29T10:36:24.599Z,52.47
2022-07-29T10:37:25.517Z,52.27
2022-07-29T10:38:24.807Z,51.67
2022-07-29T10:39:24.535Z,52.25
2022-07-29T10:40:24.519Z,51.32
2022-07-29T10:41:24.542Z,50.92
2022-07-29T10:42:34.152Z,50.62
2022-07-29T10:43:25.480Z,50.82
2022-07-29T10:44:24.477Z,50.82
2022-07-29T10:45:24.481Z,50.99
2022-07-29T10:46:25.598Z,50.10
2022-07-29T10:47:24.443Z,50.47
2022-07-29T10:48:24.425Z,49.77
2022-07-29T10:49:25.393Z,49.15
2022-07-29T10:50:24.399Z,48.75
2022-07-29T10:51:24.415Z,48.46
2022-07-29T10:52:30.175Z,48.43
2022-07-29T10:53:25.366Z,48.53
2022-07-29T10:54:24.378Z,48.73
2022-07-29T10:55:24.357Z,48.53
2022-07-29T10:56:25.523Z,48.63
2022-07-29T10:57:52.328Z,48.63
2022-07-29T10:58:25.309Z,48.83
2022-07-29T10:59:24.309Z,48.73
2022-07-29T11:00:24.306Z,48.63
2022-07-29T11:01:37.456Z,48.53
2022-07-29T11:02:41.808Z,48.33
2022-07-29T11:03:25.315Z,47.83
2022-07-29T11:04:24.242Z,47.74
2022-07-29T11:05:24.252Z,47.93
2022-07-29T11:06:26.941Z,47.53
2022-07-29T11:07:24.226Z,47.63
2022-07-29T11:08:26.407Z,47.63
2022-07-29T11:09:35.323Z,47.14
2022-07-29T11:10:31.016Z,47.14
2022-07-29T11:11:25.180Z,47.21
2022-07-29T11:12:24.146Z,47.31
2022-07-29T11:13:24.150Z,47.31
2022-07-29T11:14:26.368Z,46.89
2022-07-29T11:15:24.948Z,46.99
2022-07-29T11:16:25.347Z,47.02
2022-07-29T11:17:24.094Z,47.02
2022-07-29T11:18:24.085Z,47.11
2022-07-29T11:19:26.675Z,47.02
2022-07-29T11:20:25.075Z,46.61
2022-07-29T11:21:24.060Z,47.02
2022-07-29T11:22:25.555Z,47.11
2022-07-29T11:23:24.037Z,47.31
2022-07-29T11:24:28.578Z,47.11
2022-07-29T11:25:50.306Z,47.51
2022-07-29T11:26:24.999Z,47.41
2022-07-29T11:27:28.517Z,47.51
2022-07-29T11:28:25.475Z,47.41
2022-07-29T11:29:23.992Z,47.21
2022-07-29T11:31:24.932Z,47.71
2022-07-29T11:32:24.186Z,47.33
2022-07-29T11:33:54.773Z,47.53
2022-07-29T11:34:28.200Z,47.63
2022-07-29T11:35:38.064Z,47.63
2022-07-29T11:36:28.066Z,47.53
2022-07-29T11:37:27.624Z,47.63
2022-07-29T11:38:23.861Z,47.74
2022-07-29T11:39:23.852Z,47.93
2022-07-29T11:40:23.897Z,47.51
2022-07-29T11:41:23.888Z,47.81
2022-07-29T11:42:32.122Z,47.91
2022-07-29T11:43:24.808Z,47.71
2022-07-29T11:44:23.780Z,47.71
2022-07-29T11:45:41.849Z,47.71
2022-07-29T11:46:24.954Z,47.81
2022-07-29T11:47:23.797Z,47.81
2022-07-29T11:48:31.518Z,47.83
2022-07-29T11:49:32.207Z,48.43
2022-07-29T11:50:26.940Z,48.53
2022-07-29T11:51:32.955Z,48.43
2022-07-29T11:52:24.718Z,48.53
2022-07-29T11:53:23.699Z,48.63
2022-07-29T11:54:27.449Z,49.23
2022-07-29T11:55:23.689Z,48.93
2022-07-29T11:56:25.692Z,48.93
2022-07-29T11:57:29.556Z,49.23
2022-07-29T11:58:24.969Z,48.85
2022-07-29T11:59:23.645Z,49.15
2022-07-29T12:00:24.604Z,49.35
2022-07-29T12:01:23.608Z,49.25
2022-07-29T12:02:37.231Z,49.43
2022-07-29T12:03:34.228Z,49.33
2022-07-29T12:04:24.568Z,49.05
2022-07-29T12:05:36.357Z,49.05
2022-07-29T12:06:24.549Z,49.35
2022-07-29T12:07:03.710Z,47.51
2022-07-29T12:07:23.537Z,49.75
2022-07-29T12:08:24.511Z,49.65
2022-07-29T12:09:23.514Z,49.75
2022-07-29T12:10:30.094Z,49.65
2022-07-29T12:11:24.500Z,49.75
2022-07-29T12:12:23.494Z,49.75
2022-07-29T12:13:37.293Z,49.75
2022-07-29T12:14:24.476Z,49.85
2022-07-29T12:15:23.459Z,49.93
2022-07-29T12:16:29.238Z,49.83
2022-07-29T12:17:24.433Z,49.93
2022-07-29T12:18:24.609Z,50.35
2022-07-29T12:19:23.397Z,50.25
2022-07-29T12:20:23.392Z,50.05
2022-07-29T12:21:25.775Z,50.35
2022-07-29T12:22:23.368Z,50.65
2022-07-29T12:23:23.359Z,50.25
2022-07-29T12:24:23.356Z,50.45
2022-07-29T12:25:38.778Z,50.15
2022-07-29T12:26:25.541Z,49.95
2022-07-29T12:27:29.314Z,50.55
2022-07-29T12:28:27.607Z,50.45
2022-07-29T12:29:34.623Z,50.45
2022-07-29T12:30:24.280Z,50.25
2022-07-29T12:31:43.493Z,50.02
2022-07-29T12:32:24.277Z,49.93
2022-07-29T12:33:23.240Z,49.93
2022-07-29T12:34:23.235Z,49.93
2022-07-29T12:35:23.224Z,49.60
2022-07-29T12:36:23.208Z,49.30
2022-07-29T12:37:40.626Z,48.58
2022-07-29T12:38:24.194Z,48.79
2022-07-29T12:39:23.188Z,48.28
2022-07-29T12:40:23.185Z,48.38
2022-07-29T12:41:23.154Z,47.89
2022-07-29T12:42:23.154Z,48.49
2022-07-29T12:43:23.135Z,48.88
2022-07-29T12:44:23.138Z,48.49
2022-07-29T12:45:23.128Z,48.38
2022-07-29T12:46:23.216Z,48.07
2022-07-29T12:47:23.090Z,47.74
2022-07-29T12:48:23.089Z,47.64
2022-07-29T12:49:23.112Z,47.52
2022-07-29T12:50:26.261Z,47.22
2022-07-29T12:51:23.068Z,47.05
2022-07-29T12:52:23.921Z,47.42